Time;durP1;ratioP1;P1;durP2;ratioP2;P2;SDS_P1;SDS_P2;PMS_P1;PMS_P2;Temp;Humidity;BMP_temperature;BMP_pressure;BME280_temperature;BME280_humidity;BME280_pressure;Samples;Min_cycle;Max_cycle;Signal;HPM_P1;HPM_P2
2022/11/08 00:03:17;;;;;;;3.90;1.65;;;;;;;8.54;97.13;98420.75;4220087;28;20145;-74
2022/11/08 00:14:33;;;;;;;6.68;2.63;;;;;;;8.07;99.50;98427.28;4219589;28;20321;-74
2022/11/08 00:16:34;;;;;;;6.05;2.25;;;;;;;8.05;98.91;98426.84;4220202;28;20036;-73
2022/11/08 00:18:34;;;;;;;7.25;2.45;;;;;;;8.02;98.77;98431.09;4219951;28;20050;-73
2022/11/08 00:20:34;;;;;;;5.78;2.20;;;;;;;8.03;97.54;98415.41;4220477;28;20051;-73
2022/11/08 00:22:35;;;;;;;3.97;2.20;;;;;;;8.05;98.35;98421.34;4218984;28;20391;-73
2022/11/08 00:24:36;;;;;;;3.40;2.30;;;;;;;7.98;99.50;98424.75;4219542;28;20046;-73
2022/11/08 00:26:36;;;;;;;6.63;2.63;;;;;;;7.87;99.28;98424.53;4201777;28;20311;-73
2022/11/08 00:28:36;;;;;;;5.15;2.17;;;;;;;7.82;100.00;98435.03;4220255;28;20126;-73
2022/11/08 00:30:37;;;;;;;3.63;2.20;;;;;;;7.84;99.25;98424.44;4220046;28;20117;-73
2022/11/08 00:32:37;;;;;;;6.30;2.20;;;;;;;7.87;99.50;98427.28;4219491;28;20582;-73
2022/11/08 00:34:37;;;;;;;3.80;2.30;;;;;;;7.81;99.13;98419.66;4221070;27;20071;-73
2022/11/08 00:36:38;;;;;;;5.00;2.75;;;;;;;7.66;99.53;98413.03;4219776;28;20042;-73
2022/11/08 00:38:42;;;;;;;3.58;2.10;;;;;;;7.56;100.00;98414.41;4220000;28;20102;-73
2022/11/08 00:40:42;;;;;;;4.43;2.30;;;;;;;7.50;100.00;98421.34;4220083;28;20043;-73
2022/11/08 00:42:43;;;;;;;6.28;2.45;;;;;;;7.56;100.00;98424.63;4219750;28;20492;-73
2022/11/08 00:44:43;;;;;;;4.25;2.22;;;;;;;7.57;100.00;98424.25;4219644;28;20075;-74
2022/11/08 00:46:44;;;;;;;4.28;2.42;;;;;;;7.54;100.00;98421.44;4219598;28;20109;-73
2022/11/08 00:48:44;;;;;;;6.90;2.33;;;;;;;7.50;100.00;98429.59;4220013;28;20562;-73
2022/11/08 00:50:44;;;;;;;4.43;2.08;;;;;;;7.47;100.00;98435.03;4219412;28;20108;-73
2022/11/08 00:52:45;;;;;;;3.55;2.08;;;;;;;7.44;100.00;98432.97;4218843;28;20071;-73
2022/11/08 00:54:45;;;;;;;14.30;4.65;;;;;;;7.40;100.00;98441.16;4220193;28;20075;-73
2022/11/08 00:56:47;;;;;;;5.43;2.30;;;;;;;7.32;100.00;98440.19;4219390;28;20043;-73
2022/11/08 00:58:48;;;;;;;3.90;2.40;;;;;;;7.24;100.00;98437.63;4219445;28;20035;-73
2022/11/08 01:00:48;;;;;;;4.97;2.40;;;;;;;7.25;100.00;98437.28;4219595;28;20058;-73
2022/11/08 01:03:17;;;;;;;3.17;2.45;;;;;;;7.23;100.00;98439.59;4219353;28;20047;-73
2022/11/08 01:05:09;;;;;;;5.30;2.63;;;;;;;7.12;100.00;98433.03;4219017;28;20054;-73
2022/11/08 01:07:09;;;;;;;6.22;2.72;;;;;;;7.01;100.00;98438.25;4219378;28;20492;-73
2022/11/08 01:09:10;;;;;;;4.43;2.67;;;;;;;6.96;100.00;98440.50;4219863;28;20048;-73
2022/11/08 01:11:14;;;;;;;4.40;2.58;;;;;;;6.85;100.00;98442.16;4219622;28;20067;-73
2022/11/08 01:13:15;;;;;;;5.55;2.72;;;;;;;6.68;100.00;98437.81;4219137;28;20039;-73
2022/11/08 01:15:15;;;;;;;5.03;2.60;;;;;;;6.64;100.00;98439.69;4219218;28;20479;-73
2022/11/08 01:17:17;;;;;;;4.85;2.60;;;;;;;6.57;100.00;98432.03;4219681;28;20082;-73
2022/11/08 01:19:17;;;;;;;3.85;2.28;;;;;;;6.56;100.00;98443.38;4219302;28;20039;-73
2022/11/08 01:21:18;;;;;;;4.32;2.00;;;;;;;6.43;100.00;98439.88;4219165;28;20048;-73
2022/11/08 01:23:19;;;;;;;4.03;2.50;;;;;;;6.30;100.00;98427.38;4219080;28;20318;-73
2022/11/08 01:25:19;;;;;;;4.25;2.47;;;;;;;6.31;100.00;98431.72;4218117;28;20084;-73
2022/11/08 01:27:19;;;;;;;7.95;2.22;;;;;;;6.36;100.00;98425.94;4218886;28;20044;-73
2022/11/08 01:29:20;;;;;;;5.57;2.72;;;;;;;6.39;100.00;98428.03;4219217;28;20046;-73
2022/11/08 01:31:23;;;;;;;4.55;2.33;;;;;;;6.50;100.00;98415.34;4219323;28;20067;-73
2022/11/08 01:33:23;;;;;;;4.45;2.60;;;;;;;6.58;100.00;98416.34;4218753;28;20395;-73
2022/11/08 01:35:24;;;;;;;3.38;2.45;;;;;;;6.61;100.00;98412.88;4219951;28;20123;-73
2022/11/08 01:37:24;;;;;;;4.22;2.25;;;;;;;6.67;100.00;98419.72;4219717;28;20138;-73
2022/11/08 01:39:26;;;;;;;4.15;2.13;;;;;;;6.66;100.00;98413.41;4219106;28;20078;-74
2022/11/08 01:41:26;;;;;;;4.60;2.37;;;;;;;6.68;100.00;98424.06;4219652;28;20056;-73
2022/11/08 01:43:29;;;;;;;6.40;3.30;;;;;;;6.65;100.00;98430.28;4218624;28;20555;-73
2022/11/08 01:46:07;;;;;;;7.38;3.03;;;;;;;6.63;100.00;98425.13;4219397;28;20047;-73
2022/11/08 01:48:08;;;;;;;8.48;2.90;;;;;;;6.57;100.00;98418.28;4218303;28;20219;-73
2022/11/08 01:50:17;;;;;;;7.65;2.75;;;;;;;6.56;100.00;98415.91;4219030;28;20024;-73
2022/11/08 01:52:20;;;;;;;4.18;2.70;;;;;;;6.57;100.00;98415.53;4219425;28;20023;-74
2022/11/08 01:54:33;;;;;;;5.40;2.65;;;;;;;6.55;100.00;98415.09;4219151;28;20495;-73
2022/11/08 01:56:35;;;;;;;3.60;2.40;;;;;;;6.54;100.00;98407.19;4218975;28;20051;-73
2022/11/08 01:58:38;;;;;;;5.35;2.50;;;;;;;6.51;100.00;98399.66;4219135;28;20406;-73
2022/11/08 02:00:39;;;;;;;4.03;2.60;;;;;;;6.45;100.00;98397.19;4219060;28;20043;-73
2022/11/08 02:02:42;;;;;;;6.22;3.78;;;;;;;6.38;100.00;98391.50;4217975;28;20070;-73
2022/11/08 02:04:43;;;;;;;5.20;2.95;;;;;;;6.31;100.00;98390.50;4219289;28;20059;-73
2022/11/08 02:06:43;;;;;;;7.20;2.50;;;;;;;6.28;100.00;98394.72;4219070;28;20624;-73
2022/11/08 02:08:43;;;;;;;4.18;2.75;;;;;;;6.31;100.00;98385.00;4219280;28;20185;-73
2022/11/08 02:10:48;;;;;;;5.43;2.72;;;;;;;6.28;100.00;98383.75;4219173;28;20303;-73
2022/11/08 02:12:51;;;;;;;3.47;2.70;;;;;;;6.30;100.00;98386.16;4218476;28;20143;-73
2022/11/08 02:14:51;;;;;;;;;;;;;;;6.31;100.00;98390.50;4218621;28;20880;-73
2022/11/08 02:16:52;;;;;;;4.43;2.85;;;;;;;6.29;100.00;98392.78;4219235;28;20229;-73
2022/11/08 02:18:52;;;;;;;6.47;3.15;;;;;;;6.28;100.00;98386.50;4219779;28;20066;-73
2022/11/08 02:21:06;;;;;;;10.82;2.60;;;;;;;6.30;100.00;98383.41;4222488;28;20035;-73
2022/11/08 02:23:28;;;;;;;5.00;2.40;;;;;;;6.36;100.00;98374.53;4221407;28;20052;-73
2022/11/08 02:25:38;;;;;;;6.13;2.65;;;;;;;6.43;100.00;98365.69;4222054;28;20051;-73
2022/11/08 02:27:38;;;;;;;3.95;2.65;;;;;;;6.32;100.00;98372.88;4221872;28;20053;-73
2022/11/08 02:29:39;;;;;;;3.88;2.60;;;;;;;6.24;100.00;98368.34;4222121;28;20071;-73
2022/11/08 02:31:40;;;;;;;4.28;2.45;;;;;;;6.15;100.00;98371.25;4220507;28;20039;-73
2022/11/08 02:33:41;;;;;;;4.75;2.33;;;;;;;6.03;100.00;98363.03;4221430;28;20039;-73
2022/11/08 02:35:48;;;;;;;5.70;2.70;;;;;;;6.03;100.00;98366.59;4221956;28;20051;-73
2022/11/08 02:37:48;;;;;;;9.45;4.13;;;;;;;5.93;100.00;98367.09;4223178;27;20044;-73
2022/11/08 02:39:49;;;;;;;6.45;3.40;;;;;;;5.95;100.00;98364.00;4221750;28;20456;-73
2022/11/08 02:41:49;;;;;;;4.05;2.80;;;;;;;5.94;100.00;98362.41;4222162;28;20214;-73
2022/11/08 02:43:49;;;;;;;6.90;3.38;;;;;;;6.00;100.00;98367.31;4221378;28;20088;-73
2022/11/08 02:45:50;;;;;;;4.65;2.97;;;;;;;6.00;100.00;98374.75;4221516;28;20040;-73
2022/11/08 02:47:51;;;;;;;5.60;2.90;;;;;;;5.97;100.00;98368.00;4221772;28;20542;-73
2022/11/08 02:49:51;;;;;;;6.30;3.00;;;;;;;5.95;100.00;98356.56;4221556;28;20503;-73
2022/11/08 02:51:52;;;;;;;5.03;3.00;;;;;;;5.95;100.00;98364.00;4221835;28;20056;-73
2022/11/08 02:53:52;;;;;;;4.15;2.58;;;;;;;5.86;100.00;98364.13;4220579;28;20047;-73
2022/11/08 02:55:53;;;;;;;6.60;3.00;;;;;;;5.74;100.00;98355.94;4221621;28;20130;-73
2022/11/08 02:57:53;;;;;;;5.07;2.60;;;;;;;5.72;100.00;98363.75;4221383;28;20377;-73
2022/11/08 02:59:54;;;;;;;3.53;2.53;;;;;;;5.64;100.00;98352.56;4221346;28;20419;-72
2022/11/08 03:01:54;;;;;;;3.97;2.50;;;;;;;5.58;100.00;98361.38;4220277;28;20544;-73
2022/11/08 03:03:54;;;;;;;4.10;2.80;;;;;;;5.57;100.00;98351.53;4205499;28;20135;-73
2022/11/08 03:05:56;;;;;;;4.60;2.67;;;;;;;5.46;100.00;98353.16;4220749;28;20131;-73
2022/11/08 03:07:56;;;;;;;3.60;2.80;;;;;;;5.45;100.00;98351.56;4221255;28;20345;-73
2022/11/08 03:09:56;;;;;;;4.82;2.97;;;;;;;5.47;100.00;98363.00;4221645;28;20078;-73
2022/11/08 03:11:57;;;;;;;7.35;2.90;;;;;;;5.41;100.00;98358.91;4221144;28;20344;-73
2022/11/08 03:13:57;;;;;;;4.60;2.83;;;;;;;5.36;100.00;98366.22;4220957;28;20126;-73
2022/11/08 03:16:01;;;;;;;3.80;2.60;;;;;;;5.33;100.00;98352.41;4220210;28;20035;-73
2022/11/08 03:18:02;;;;;;;4.85;2.70;;;;;;;5.25;100.00;98358.81;4220645;28;20052;-73
2022/11/08 03:20:03;;;;;;;4.57;3.15;;;;;;;5.24;100.00;98347.06;4221551;28;20238;-73
2022/11/08 03:22:03;;;;;;;4.97;2.38;;;;;;;5.24;100.00;98349.00;4220584;28;20289;-73
2022/11/08 03:24:04;;;;;;;4.88;2.50;;;;;;;5.19;100.00;98346.47;4220436;28;20034;-73
2022/11/08 03:26:05;;;;;;;5.32;3.08;;;;;;;5.24;100.00;98359.97;4202208;28;20435;-73
2022/11/08 03:28:07;;;;;;;5.22;2.40;;;;;;;5.17;100.00;98351.53;4220716;28;20076;-73
2022/11/08 03:30:07;;;;;;;4.75;2.90;;;;;;;5.12;100.00;98354.47;4220609;28;20067;-73
2022/11/08 03:32:08;;;;;;;8.00;3.00;;;;;;;5.01;100.00;98356.91;4221092;28;20422;-73
2022/11/08 03:34:09;;;;;;;3.83;2.60;;;;;;;5.00;100.00;98361.59;4220358;28;20027;-73
2022/11/08 03:36:09;;;;;;;5.80;2.67;;;;;;;4.98;100.00;98363.09;4221721;27;20027;-73
2022/11/08 03:38:10;;;;;;;5.45;2.83;;;;;;;5.06;100.00;98353.94;4221534;28;20030;-73
2022/11/08 03:40:11;;;;;;;4.10;2.95;;;;;;;5.11;100.00;98353.69;4221106;28;20050;-73
2022/11/08 03:42:11;;;;;;;6.70;2.67;;;;;;;5.15;100.00;98349.13;4220111;28;20094;-73
2022/11/08 03:44:11;;;;;;;4.50;2.63;;;;;;;5.17;100.00;98355.06;4220317;28;20059;-73
2022/11/08 03:46:12;;;;;;;5.72;2.65;;;;;;;5.20;100.00;98356.31;4220398;28;20110;-73
2022/11/08 03:48:12;;;;;;;4.75;2.63;;;;;;;5.20;100.00;98353.56;4221054;28;20348;-73
2022/11/08 03:50:14;;;;;;;4.50;2.55;;;;;;;5.19;100.00;98355.50;4221001;28;20031;-73
2022/11/08 03:52:15;;;;;;;5.07;2.70;;;;;;;5.19;100.00;98352.75;4220767;28;20035;-73
2022/11/08 03:54:15;;;;;;;4.28;2.60;;;;;;;5.23;100.00;98355.63;4220142;28;20506;-73
2022/11/08 03:56:15;;;;;;;3.90;2.60;;;;;;;5.22;100.00;98352.09;4220665;28;20116;-73
2022/11/08 03:58:16;;;;;;;4.38;2.40;;;;;;;5.22;100.00;98354.84;4220760;28;20035;-73
2022/11/08 04:00:19;;;;;;;7.35;2.60;;;;;;;5.26;100.00;98361.22;4201875;28;20032;-73
2022/11/08 04:02:19;;;;;;;4.90;2.38;;;;;;;5.28;100.00;98355.38;4220449;28;20027;-73
2022/11/08 04:04:20;;;;;;;5.25;2.38;;;;;;;5.28;100.00;98358.91;4219758;27;20160;-73
2022/11/08 04:06:20;;;;;;;3.35;2.28;;;;;;;5.25;100.00;98356.88;4220621;28;20748;-73
2022/11/08 04:08:20;;;;;;;5.15;3.22;;;;;;;5.23;100.00;98352.88;4220311;28;20067;-73
2022/11/08 04:10:21;;;;;;;6.20;2.60;;;;;;;5.18;100.00;98356.66;4220382;28;20050;-73
2022/11/08 04:16:59;;;;;;;4.28;2.88;;;;;;;5.14;100.00;98365.94;4219570;28;20090;-73
2022/11/08 04:21:19;;;;;;;3.67;2.83;;;;;;;5.10;100.00;98359.53;4219277;28;20128;-73
2022/11/08 04:23:19;;;;;;;5.35;2.75;;;;;;;4.99;100.00;98360.00;4219988;28;21375;-73
2022/11/08 04:25:19;;;;;;;5.53;3.00;;;;;;;4.93;100.00;98366.06;4220269;28;20074;-73
2022/11/08 04:27:19;;;;;;;3.78;2.80;;;;;;;4.89;100.00;98363.22;4220308;28;20040;-73
2022/11/08 04:29:20;;;;;;;4.65;2.97;;;;;;;4.85;100.00;98375.19;4219705;28;20262;-73
2022/11/08 04:31:20;;;;;;;3.83;2.83;;;;;;;4.79;100.00;98358.16;4220023;28;20471;-73
2022/11/08 04:33:21;;;;;;;9.40;3.40;;;;;;;4.72;100.00;98364.22;4219444;28;20075;-73
2022/11/08 04:35:21;;;;;;;5.35;2.80;;;;;;;4.68;100.00;98370.72;4220000;27;20051;-73
2022/11/08 04:37:21;;;;;;;8.43;3.60;;;;;;;4.63;100.00;98363.50;4220439;28;20314;-73
2022/11/08 04:39:22;;;;;;;5.00;3.40;;;;;;;4.62;100.00;98358.38;4220255;27;20505;-73
2022/11/08 04:41:23;;;;;;;4.43;3.25;;;;;;;4.62;100.00;98361.91;4219596;28;20055;-73
2022/11/08 04:43:24;;;;;;;3.75;2.55;;;;;;;4.63;100.00;98351.75;4218445;28;20079;-73
2022/11/08 04:45:24;;;;;;;5.35;2.90;;;;;;;4.58;100.00;98349.25;4219334;28;20047;-73
2022/11/08 04:47:24;;;;;;;4.63;3.13;;;;;;;4.50;100.00;98335.31;4219687;28;20090;-73
2022/11/08 04:49:24;;;;;;;7.22;3.33;;;;;;;4.45;100.00;98337.47;4219974;28;20135;-73
2022/11/08 04:51:31;;;;;;;6.13;3.10;;;;;;;4.42;100.00;98344.44;4219887;28;20071;-73
2022/11/08 04:53:32;;;;;;;3.83;2.88;;;;;;;4.41;100.00;98340.13;4219131;28;20448;-73
2022/11/08 04:55:32;;;;;;;6.40;3.35;;;;;;;4.36;100.00;98340.31;4219058;28;20126;-73
2022/11/08 04:57:32;;;;;;;5.20;2.85;;;;;;;4.30;100.00;98340.88;4219878;28;20052;-73
2022/11/08 04:59:33;;;;;;;7.20;4.00;;;;;;;4.20;100.00;98337.44;4219986;28;20035;-72
2022/11/08 05:01:33;;;;;;;5.25;2.85;;;;;;;4.20;100.00;98333.91;4218662;28;20113;-73
2022/11/08 05:03:34;;;;;;;8.68;3.17;;;;;;;4.16;100.00;98335.72;4218775;28;20036;-73
2022/11/08 05:05:34;;;;;;;6.55;2.95;;;;;;;4.18;100.00;98336.19;4220043;28;20752;-73
2022/11/08 05:07:34;;;;;;;7.57;3.47;;;;;;;4.10;100.00;98321.44;4219532;28;20749;-73
2022/11/08 05:09:35;;;;;;;8.70;3.28;;;;;;;4.11;100.00;98323.03;4219395;28;20075;-73
2022/11/08 05:11:35;;;;;;;5.38;2.90;;;;;;;4.11;100.00;98330.47;4219598;28;20691;-72
2022/11/08 05:13:36;;;;;;;5.53;2.97;;;;;;;4.14;100.00;98324.31;4218681;28;20039;-72
2022/11/08 05:15:36;;;;;;;6.45;3.40;;;;;;;4.17;100.00;98318.16;4219450;28;20371;-72
2022/11/08 05:17:37;;;;;;;5.30;3.75;;;;;;;4.18;100.00;98317.03;4219583;28;20100;-72
2022/11/08 05:24:31;;;;;;;10.68;4.07;;;;;;;4.41;100.00;98309.19;4197352;28;20093;-73
2022/11/08 05:26:34;;;;;;;6.57;4.00;;;;;;;4.47;100.00;98316.84;4219190;28;20403;-73
2022/11/08 05:28:34;;;;;;;6.95;3.95;;;;;;;4.53;100.00;98317.38;4219461;28;20043;-72
2022/11/08 05:30:35;;;;;;;8.77;4.35;;;;;;;4.59;100.00;98315.22;4219967;28;20326;-72
2022/11/08 05:32:35;;;;;;;6.88;3.83;;;;;;;4.68;100.00;98307.69;4218707;28;20066;-73
2022/11/08 05:34:35;;;;;;;8.85;3.67;;;;;;;4.72;100.00;98306.69;4219233;28;20487;-72
2022/11/08 05:36:36;;;;;;;10.57;3.80;;;;;;;4.79;100.00;98303.34;4219752;28;20499;-73
2022/11/08 05:38:37;;;;;;;7.50;3.58;;;;;;;4.83;100.00;98307.00;4219359;28;20082;-73
2022/11/08 05:40:37;;;;;;;7.28;2.88;;;;;;;4.86;100.00;98300.03;4218157;28;20044;-73
2022/11/08 05:42:37;;;;;;;5.60;3.42;;;;;;;4.87;100.00;98305.16;4218483;28;20066;-73
2022/11/08 05:44:38;;;;;;;5.93;3.30;;;;;;;4.86;100.00;98294.53;4202178;28;20075;-73
2022/11/08 05:46:38;;;;;;;3.72;2.85;;;;;;;4.84;100.00;98297.63;4219140;28;20085;-73
2022/11/08 05:48:41;;;;;;;8.80;3.88;;;;;;;4.86;100.00;98295.34;4218662;28;20448;-73
2022/11/08 05:50:41;;;;;;;;;;;;;;;4.88;100.00;98295.81;4220163;28;20066;-73
2022/11/08 05:52:41;;;;;;;5.72;3.67;;;;;;;4.85;100.00;98299.22;4219264;28;19920;-73
2022/11/08 05:54:42;;;;;;;7.40;3.53;;;;;;;4.86;100.00;98289.06;4222410;28;20075;-73
2022/11/08 05:56:42;;;;;;;5.32;3.15;;;;;;;4.86;100.00;98291.81;4158280;27;20132;-73
2022/11/08 05:58:43;;;;;;;5.47;3.25;;;;;;;4.86;100.00;98289.06;4234121;27;20681;-73
2022/11/08 06:00:43;;;;;;;10.50;3.63;;;;;;;4.84;100.00;98285.88;4222682;28;20564;-72
2022/11/08 06:02:44;;;;;;;6.18;3.15;;;;;;;4.84;100.00;98283.94;4221633;28;20050;-73
2022/11/08 06:04:44;;;;;;;6.82;3.50;;;;;;;4.85;100.00;98288.25;4222271;28;20504;-73
2022/11/08 06:06:44;;;;;;;11.95;3.67;;;;;;;4.87;100.00;98287.91;4221405;28;20518;-73
2022/11/08 06:08:45;;;;;;;9.02;3.97;;;;;;;4.90;100.00;98288.03;4222122;28;20043;-73
2022/11/08 06:10:46;;;;;;;5.03;3.15;;;;;;;4.90;100.00;98282.56;4222370;28;20051;-73
2022/11/08 06:12:46;;;;;;;6.15;3.38;;;;;;;4.91;100.00;98281.41;4219520;27;20543;-73
2022/11/08 06:14:46;;;;;;;6.72;3.42;;;;;;;4.92;100.00;98290.44;4220692;28;20045;-73
2022/11/08 06:16:46;;;;;;;7.60;3.20;;;;;;;4.92;100.00;98291.22;4221502;28;20043;-73
2022/11/08 06:18:47;;;;;;;6.35;3.47;;;;;;;4.97;100.00;98288.25;4220741;28;20082;-73
2022/11/08 06:20:47;;;;;;;5.63;3.88;;;;;;;4.98;100.00;98289.84;4222062;28;20094;-73
2022/11/08 06:22:48;;;;;;;5.07;3.25;;;;;;;4.95;100.00;98290.53;4221374;28;20116;-73
2022/11/08 06:24:48;;;;;;;11.55;3.47;;;;;;;4.94;100.00;98288.94;4219544;28;20063;-73
2022/11/08 06:26:48;;;;;;;7.38;3.63;;;;;;;4.92;100.00;98298.66;4221702;28;20717;-73
2022/11/08 06:28:48;;;;;;;11.65;3.53;;;;;;;4.86;100.00;98300.03;4221602;28;20562;-72
2022/11/08 06:30:49;;;;;;;10.75;3.45;;;;;;;4.83;100.00;98308.94;4222521;28;20640;-73
2022/11/08 06:32:50;;;;;;;4.68;3.13;;;;;;;4.79;100.00;98306.88;4220424;28;20074;-72
2022/11/08 06:34:50;;;;;;;5.95;3.20;;;;;;;4.82;100.00;98310.09;4222260;27;20038;-73
2022/11/08 06:36:51;;;;;;;23.50;5.60;;;;;;;4.81;100.00;98312.03;4221623;28;20062;-73
2022/11/08 06:38:55;;;;;;;14.82;4.38;;;;;;;4.83;100.00;98315.22;4221124;27;20514;-73
2022/11/08 06:40:59;;;;;;;12.45;3.90;;;;;;;4.86;100.00;98317.28;4220647;28;20074;-73
2022/11/08 06:42:59;;;;;;;9.35;4.22;;;;;;;4.86;100.00;98317.28;4220225;28;20047;-73
2022/11/08 06:45:00;;;;;;;7.13;3.17;;;;;;;4.88;100.00;98319.66;4221272;28;20043;-73
2022/11/08 06:47:00;;;;;;;12.60;3.25;;;;;;;4.88;100.00;98315.00;4221209;28;20050;-72
2022/11/08 06:49:01;;;;;;;8.20;4.00;;;;;;;4.92;100.00;98321.38;4220981;28;20483;-73
2022/11/08 06:51:01;;;;;;;8.27;4.18;;;;;;;4.93;100.00;98322.19;4220891;28;20629;-73
2022/11/08 06:53:07;;;;;;;9.40;5.32;;;;;;;4.96;100.00;98316.78;4220532;28;20095;-72
2022/11/08 06:55:07;;;;;;;6.10;3.97;;;;;;;5.00;100.00;98319.66;4221539;28;20069;-73
2022/11/08 06:57:08;;;;;;;10.52;4.95;;;;;;;5.03;100.00;98322.50;4203257;28;20433;-72
2022/11/08 06:59:09;;;;;;;10.32;5.25;;;;;;;5.01;100.00;98311.09;4221503;28;20044;-72
2022/11/08 07:01:10;;;;;;;13.20;5.00;;;;;;;5.00;100.00;98314.97;4221650;28;20048;-73
2022/11/08 07:03:12;;;;;;;8.45;5.03;;;;;;;5.00;100.00;98320.47;4221273;27;20039;-72
2022/11/08 07:05:12;;;;;;;10.52;4.68;;;;;;;4.98;100.00;98322.75;4220908;28;20051;-73
2022/11/08 07:07:13;;;;;;;8.82;4.60;;;;;;;4.96;100.00;98308.56;4221310;28;20104;-73
2022/11/08 07:09:13;;;;;;;9.00;4.03;;;;;;;4.94;100.00;98310.06;4221413;28;20036;-72
2022/11/08 07:11:14;;;;;;;8.38;4.78;;;;;;;4.95;100.00;98308.91;4221363;28;20784;-73
2022/11/08 07:13:15;;;;;;;6.03;4.28;;;;;;;4.91;100.00;98299.81;4220856;28;20080;-73
2022/11/08 07:15:15;;;;;;;6.38;3.97;;;;;;;4.94;100.00;98294.41;4221009;28;20381;-73
2022/11/08 07:17:16;;;;;;;8.93;4.30;;;;;;;4.97;100.00;98307.44;4221329;28;20514;-73
2022/11/08 07:19:16;;;;;;;6.63;4.30;;;;;;;4.95;100.00;98297.94;4221344;28;20130;-73
2022/11/08 07:21:17;;;;;;;6.32;3.92;;;;;;;4.97;100.00;98292.94;4221345;28;20043;-72
2022/11/08 07:23:17;;;;;;;5.60;4.13;;;;;;;4.98;100.00;98298.06;4220195;28;20143;-73
2022/11/08 07:25:17;;;;;;;7.45;4.53;;;;;;;5.03;100.00;98292.34;4221428;28;20055;-73
2022/11/08 07:27:18;;;;;;;12.10;4.80;;;;;;;5.13;100.00;98295.75;4221181;28;20051;-73
2022/11/08 07:29:18;;;;;;;7.28;4.30;;;;;;;5.17;100.00;98280.22;4221441;28;20077;-73
2022/11/08 07:31:18;;;;;;;9.60;4.15;;;;;;;5.24;100.00;98297.69;4221052;28;20462;-73
2022/11/08 07:33:19;;;;;;;5.72;4.35;;;;;;;5.27;100.00;98282.47;4220646;28;20107;-73
2022/11/08 07:35:19;;;;;;;9.32;5.03;;;;;;;5.36;100.00;98296.84;4221436;28;20053;-72
2022/11/08 07:37:19;;;;;;;8.90;5.20;;;;;;;5.40;100.00;98289.50;4220637;28;20085;-73
2022/11/08 07:39:20;;;;;;;6.90;4.65;;;;;;;5.49;100.00;98292.91;4218188;28;20048;-73
2022/11/08 07:41:20;;;;;;;8.30;4.50;;;;;;;5.60;100.00;98291.25;4217900;28;20046;-72
2022/11/08 07:43:20;;;;;;;7.22;4.57;;;;;;;5.69;100.00;98285.59;4220015;28;20062;-73
2022/11/08 07:45:21;;;;;;;7.30;4.57;;;;;;;5.77;100.00;98287.41;4220814;28;20039;-73
2022/11/08 07:47:21;;;;;;;6.13;4.22;;;;;;;5.82;100.00;98284.41;4221202;28;20079;-73
2022/11/08 07:49:21;;;;;;;6.07;4.15;;;;;;;5.91;100.00;98281.53;4221056;27;20112;-73
2022/11/08 07:51:22;;;;;;;6.22;4.07;;;;;;;5.99;100.00;98282.53;4220599;28;20055;-73
2022/11/08 07:53:22;;;;;;;6.80;4.03;;;;;;;6.07;100.00;98279.59;4220206;28;20483;-73
2022/11/08 07:55:24;;;;;;;8.57;4.65;;;;;;;6.17;100.00;98281.03;4221161;28;20047;-73
2022/11/08 07:57:24;;;;;;;10.95;4.03;;;;;;;6.27;100.00;98279.69;4219487;28;20036;-73
2022/11/08 07:59:25;;;;;;;10.68;5.32;;;;;;;6.39;100.00;98285.13;4220117;28;20475;-73
2022/11/08 08:01:25;;;;;;;8.35;4.47;;;;;;;6.50;100.00;98285.38;4220100;28;20052;-73
2022/11/08 08:03:25;;;;;;;6.93;3.78;;;;;;;6.61;100.00;98276.22;4220197;27;20043;-73
2022/11/08 08:05:27;;;;;;;6.22;4.15;;;;;;;6.72;100.00;98269.03;4219660;28;20047;-73
2022/11/08 08:07:28;;;;;;;11.40;3.30;;;;;;;6.84;100.00;98259.88;4219764;28;20047;-73
2022/11/08 08:09:28;;;;;;;6.50;3.05;;;;;;;7.03;100.00;98272.84;4220043;28;20589;-73
2022/11/08 08:11:29;;;;;;;7.32;3.45;;;;;;;7.22;100.00;98259.13;4219991;28;20097;-73
2022/11/08 08:13:30;;;;;;;5.35;3.33;;;;;;;7.35;100.00;98268.03;4200926;28;20391;-73
2022/11/08 08:15:31;;;;;;;6.82;3.22;;;;;;;7.51;100.00;98265.22;4220235;28;20838;-73
2022/11/08 08:17:31;;;;;;;7.00;3.30;;;;;;;7.64;100.00;98265.88;4200096;28;20059;-73
2022/11/08 08:19:31;;;;;;;16.92;4.63;;;;;;;7.73;100.00;98264.47;4220475;28;20384;-73
2022/11/08 08:21:32;;;;;;;8.68;3.08;;;;;;;7.81;100.00;98266.22;4218952;28;20048;-73
2022/11/08 08:23:32;;;;;;;7.15;3.47;;;;;;;7.93;100.00;98262.47;4219415;28;20542;-73
2022/11/08 08:25:33;;;;;;;7.60;3.20;;;;;;;8.01;100.00;98264.19;4219911;28;20051;-73
2022/11/08 08:27:33;;;;;;;6.38;3.53;;;;;;;8.08;100.00;98267.09;4219963;28;20122;-73
2022/11/08 08:29:33;;;;;;;6.47;3.45;;;;;;;8.18;100.00;98262.94;4220562;28;20082;-73
2022/11/08 08:31:34;;;;;;;5.63;2.58;;;;;;;8.22;100.00;98263.81;4219693;28;20071;-73
2022/11/08 08:33:34;;;;;;;9.35;3.17;;;;;;;8.29;100.00;98263.94;4219732;28;20444;-73
2022/11/08 08:35:35;;;;;;;5.15;2.55;;;;;;;8.31;100.00;98261.59;4219270;27;20543;-73
2022/11/08 08:37:35;;;;;;;7.05;2.60;;;;;;;8.40;100.00;98264.91;4219982;28;20050;-73
2022/11/08 08:39:36;;;;;;;5.90;3.03;;;;;;;8.49;100.00;98269.38;4220179;28;20127;-73
2022/11/08 08:41:36;;;;;;;5.22;2.60;;;;;;;8.56;100.00;98266.75;4220105;28;20039;-73
2022/11/08 08:43:36;;;;;;;6.65;2.95;;;;;;;8.64;100.00;98262.94;4218107;28;20078;-73
2022/11/08 08:45:37;;;;;;;3.40;2.67;;;;;;;8.68;100.00;98267.31;4219696;28;20047;-73
2022/11/08 08:47:37;;;;;;;10.45;5.00;;;;;;;8.78;100.00;98256.84;4219976;28;20118;-73
2022/11/08 08:49:38;;;;;;;4.95;3.80;;;;;;;8.87;100.00;98251.88;4220037;28;20047;-73
2022/11/08 08:51:38;;;;;;;12.57;4.57;;;;;;;8.91;100.00;98247.97;4219963;28;20063;-73
2022/11/08 08:53:38;;;;;;;6.65;3.53;;;;;;;8.97;100.00;98234.66;4218915;28;20040;-73
2022/11/08 08:55:40;;;;;;;7.00;2.80;;;;;;;9.01;100.00;98244.56;4220039;28;20476;-73
2022/11/08 08:57:47;;;;;;;7.63;3.28;;;;;;;9.02;100.00;98237.09;4219846;28;20058;-73
2022/11/08 08:59:47;;;;;;;6.40;3.67;;;;;;;9.05;100.00;98230.81;4219741;28;20050;-73
2022/11/08 09:01:48;;;;;;;5.03;3.10;;;;;;;9.12;100.00;98227.38;4218621;28;20261;-73
2022/11/08 09:03:48;;;;;;;6.07;3.25;;;;;;;9.14;100.00;98225.03;4218962;27;20044;-73
2022/11/08 09:05:48;;;;;;;4.55;2.72;;;;;;;9.12;100.00;98211.59;4218896;28;20407;-73
2022/11/08 09:07:53;;;;;;;7.47;3.10;;;;;;;9.09;100.00;98217.84;4219442;28;20487;-73
2022/11/08 09:09:53;;;;;;;9.50;3.45;;;;;;;9.11;100.00;98210.03;4219090;28;20054;-73
2022/11/08 09:11:54;;;;;;;10.05;5.35;;;;;;;9.10;100.00;98202.09;4219879;28;20035;-73
2022/11/08 09:13:54;;;;;;;6.72;3.83;;;;;;;9.08;100.00;98196.16;4218779;28;20040;-73
2022/11/08 09:15:54;;;;;;;6.65;3.80;;;;;;;9.07;100.00;98211.91;4219366;28;20051;-73
2022/11/08 09:17:55;;;;;;;6.63;3.92;;;;;;;9.08;100.00;98207.19;4219548;28;20511;-73
2022/11/08 09:19:56;;;;;;;6.88;3.42;;;;;;;9.05;100.00;98208.75;4219404;28;20040;-73
2022/11/08 09:21:56;;;;;;;7.32;3.15;;;;;;;9.05;100.00;98211.50;4219479;28;20047;-73
2022/11/08 09:23:57;;;;;;;5.20;3.40;;;;;;;9.01;100.00;98207.88;4219042;28;20643;-73
2022/11/08 09:25:59;;;;;;;5.75;3.03;;;;;;;8.99;100.00;98201.97;4220116;28;20400;-73
2022/11/08 09:27:59;;;;;;;7.70;3.70;;;;;;;8.98;100.00;98206.69;4219094;28;20169;-73
2022/11/08 09:29:59;;;;;;;5.45;2.95;;;;;;;8.93;100.00;98212.50;4201230;28;20072;-73
2022/11/08 09:32:00;;;;;;;4.95;3.40;;;;;;;8.97;100.00;98221.66;4219513;28;20150;-73
2022/11/08 09:34:00;;;;;;;5.13;2.83;;;;;;;9.01;98.74;98210.66;4217651;28;20412;-73
2022/11/08 09:36:02;;;;;;;3.65;2.17;;;;;;;9.06;97.17;98204.03;4219832;28;20071;-73
2022/11/08 09:38:03;;;;;;;8.13;3.38;;;;;;;9.12;95.97;98203.31;4219183;28;20045;-73
2022/11/08 09:40:04;;;;;;;12.02;6.28;;;;;;;9.19;95.09;98200.66;4219473;28;20114;-73
2022/11/08 09:42:45;;;;;;;10.07;5.15;;;;;;;9.25;94.33;98196.38;4218477;28;20020;-73
2022/11/08 09:45:09;;;;;;;5.78;3.53;;;;;;;9.31;90.27;98207.88;4218576;28;20038;-73
2022/11/08 09:47:19;;;;;;;4.13;2.35;;;;;;;9.41;89.48;98198.13;4218915;28;20405;-73
2022/11/08 09:49:34;;;;;;;5.63;3.15;;;;;;;9.48;89.39;98190.72;4219204;28;20123;-73
2022/11/08 09:51:35;;;;;;;7.10;4.30;;;;;;;9.50;89.28;98193.09;4219061;28;20055;-73
2022/11/08 09:53:44;;;;;;;11.05;5.95;;;;;;;9.47;89.48;98196.63;4217860;28;20452;-73
2022/11/08 09:55:48;;;;;;;5.78;2.78;;;;;;;9.46;88.97;98200.56;4211738;28;20058;-73